Time;durP1;ratioP1;P1;durP2;ratioP2;P2;SDS_P1;SDS_P2;PMS_P1;PMS_P2;Temp;Humidity;BMP_temperature;BMP_pressure;BME280_temperature;BME280_humidity;BME280_pressure;Samples;Min_cycle;Max_cycle;Signal;HPM_P1;HPM_P2
2022/05/21 00:02:03;;;;;;;2.77;1.47;;;15.40;64.70;;;15.68;49.35;95394.44;5052527;28;20490;-54
2022/05/21 00:04:31;;;;;;;2.83;1.50;;;15.40;65.10;;;15.64;49.43;95390.44;5052763;28;20850;-56
2022/05/21 00:06:59;;;;;;;5.97;1.77;;;15.30;65.50;;;15.59;49.82;95387.44;5056067;28;20534;-53
2022/05/21 00:09:27;;;;;;;3.33;2.10;;;15.30;65.80;;;15.53;49.82;95390.72;5060992;28;20480;-56
2022/05/21 00:11:54;;;;;;;8.93;2.40;;;15.30;66.50;;;15.48;49.91;95388.53;5058572;28;20978;-57
2022/05/21 00:14:21;;;;;;;2.10;1.70;;;15.20;66.80;;;15.44;50.15;95400.44;5058970;28;20966;-55
2022/05/21 00:16:49;;;;;;;2.40;1.53;;;15.20;67.30;;;15.39;50.15;95395.59;5047093;28;20717;-55
2022/05/21 00:19:16;;;;;;;2.23;2.13;;;15.10;67.10;;;15.36;50.61;95401.22;5052835;28;20482;-54
2022/05/21 00:21:44;;;;;;;3.77;1.83;;;15.10;68.10;;;15.32;50.66;95399.03;5049574;28;20490;-55
2022/05/21 00:24:12;;;;;;;6.03;2.03;;;15.00;68.00;;;15.28;50.59;95389.75;5054973;28;20506;-54
2022/05/21 00:26:40;;;;;;;3.93;1.90;;;15.00;68.00;;;15.23;50.67;95383.09;5060927;28;20477;-56
2022/05/21 00:29:07;;;;;;;4.40;2.03;;;15.00;68.80;;;15.17;50.79;95380.25;5056583;28;20989;-54
2022/05/21 00:31:34;;;;;;;2.93;1.93;;;14.90;68.80;;;15.09;50.83;95380.16;5055382;28;20450;-57
2022/05/21 00:34:01;;;;;;;3.30;1.80;;;14.90;68.40;;;15.00;50.57;95384.59;5058184;28;20511;-55
2022/05/21 00:36:29;;;;;;;2.50;2.20;;;14.80;67.80;;;14.94;50.77;95378.09;5049957;28;20818;-54
2022/05/21 00:38:56;;;;;;;6.17;2.17;;;14.70;68.70;;;14.90;50.81;95366.13;5059191;28;20555;-53
2022/05/21 00:41:25;;;;;;;2.30;1.80;;;14.60;69.40;;;14.88;50.80;95366.28;5060266;28;21055;-55
2022/05/21 00:43:54;;;;;;;4.63;1.60;;;14.60;69.20;;;14.85;51.05;95358.63;5050840;28;20576;-56
2022/05/21 00:46:24;;;;;;;8.80;1.67;;;14.60;69.60;;;14.82;51.10;95361.59;5057142;28;20505;-55
2022/05/21 00:48:58;;;;;;;2.30;2.10;;;14.60;70.00;;;14.81;51.35;95356.44;5057660;28;20533;-53
2022/05/21 00:51:29;;;;;;;3.97;2.50;;;14.50;70.60;;;14.78;51.60;95359.41;5055672;28;20455;-56
2022/05/21 00:53:57;;;;;;;2.13;1.70;;;14.50;71.20;;;14.75;51.79;95357.06;5055755;28;20486;-56
2022/05/21 00:56:26;;;;;;;2.50;2.03;;;14.50;71.30;;;14.70;51.55;95355.72;5062157;28;20455;-57
2022/05/21 01:01:42;;;;;;;2.70;2.30;;;14.40;72.00;;;14.64;52.09;95356.34;5050450;28;20498;-56
2022/05/21 01:04:09;;;;;;;6.20;1.83;;;14.40;72.00;;;14.61;52.35;95351.34;5060624;28;20479;-57
2022/05/21 01:06:37;;;;;;;3.13;2.07;;;14.30;72.50;;;14.56;52.27;95347.44;5059274;28;20901;-53
2022/05/21 01:09:04;;;;;;;3.87;2.40;;;14.30;72.70;;;14.50;52.35;95340.94;5059728;28;20955;-54
2022/05/21 01:11:33;;;;;;;6.43;2.20;;;14.30;73.10;;;14.47;52.47;95342.09;5060168;28;20459;-59
2022/05/21 01:14:00;;;;;;;5.93;2.20;;;14.30;73.60;;;14.45;52.63;95337.94;5053509;28;20447;-55
2022/05/21 01:16:29;;;;;;;5.77;2.10;;;14.20;73.60;;;14.41;52.83;95340.06;5056662;28;20456;-54
2022/05/21 01:18:57;;;;;;;3.80;2.17;;;14.20;73.70;;;14.40;52.40;95342.84;5063453;28;20469;-56
2022/05/21 01:21:24;;;;;;;14.57;3.43;;;14.10;73.60;;;14.38;52.66;95344.84;5056042;28;20519;-58
2022/05/21 01:23:53;;;;;;;5.73;2.07;;;14.10;73.60;;;14.35;52.94;95349.44;5055293;28;20970;-55
2022/05/21 01:26:22;;;;;;;3.33;2.73;;;14.10;74.30;;;14.31;52.54;95345.44;5059959;28;20455;-54
2022/05/21 01:28:49;;;;;;;6.20;2.43;;;14.10;74.20;;;14.28;52.90;95348.38;5060892;28;20467;-56
2022/05/21 01:31:16;;;;;;;2.10;2.00;;;14.10;73.80;;;14.25;52.84;95350.47;5059438;28;20456;-56
2022/05/21 01:33:45;;;;;;;4.27;2.37;;;14.00;74.40;;;14.22;53.14;95349.00;5058477;28;20835;-57
2022/05/21 01:36:13;;;;;;;2.97;2.07;;;14.00;75.00;;;14.18;52.82;95342.31;5062881;28;20557;-55
2022/05/21 01:38:41;;;;;;;5.60;2.20;;;14.00;74.90;;;14.15;53.10;95342.63;5049423;28;20469;-55
2022/05/21 01:41:10;;;;;;;3.73;2.60;;;13.90;75.20;;;14.09;52.85;95346.69;5035098;28;21078;-56
2022/05/21 01:46:22;;;;;;;2.53;2.30;;;13.80;74.50;;;13.97;53.05;95340.81;5041396;28;20477;-55
2022/05/21 01:48:49;;;;;;;6.53;2.20;;;13.80;74.90;;;13.92;52.97;95339.56;5046563;28;20464;-55
2022/05/21 01:51:17;;;;;;;6.43;2.63;;;13.70;75.30;;;13.87;52.71;95329.44;5041301;28;21061;-53
2022/05/21 01:53:44;;;;;;;3.03;2.70;;;13.70;74.20;;;13.79;52.87;95334.66;5044696;28;20467;-55
2022/05/21 01:56:13;;;;;;;5.20;2.50;;;13.60;74.30;;;13.69;52.97;95336.50;5040961;28;20667;-55
2022/05/21 01:58:40;;;;;;;3.07;2.47;;;13.50;74.50;;;13.66;53.24;95336.78;5046298;28;20521;-56
2022/05/21 02:01:08;;;;;;;3.07;2.43;;;13.40;74.80;;;13.62;53.83;95329.16;5042186;28;20526;-56
2022/05/21 02:03:35;;;;;;;9.80;2.63;;;13.40;76.00;;;13.61;53.62;95331.94;5044825;28;20459;-56
2022/05/21 02:06:03;;;;;;;7.13;2.70;;;13.40;76.40;;;13.56;53.54;95329.75;5036845;28;20477;-55
2022/05/21 02:08:30;;;;;;;3.97;2.70;;;13.30;75.90;;;13.52;53.63;95331.00;5045400;28;21045;-55
2022/05/21 02:10:57;;;;;;;5.13;2.23;;;13.30;76.40;;;13.47;53.25;95327.16;5046502;28;20478;-55
2022/05/21 02:13:28;;;;;;;3.63;2.10;;;13.30;75.30;;;13.43;53.44;95318.69;5042847;28;20455;-56
2022/05/21 02:15:55;;;;;;;3.07;2.30;;;13.20;75.40;;;13.39;53.30;95304.94;5040639;28;20481;-54
2022/05/21 02:18:23;;;;;;;2.80;2.60;;;13.20;75.50;;;13.34;53.08;95304.56;5045940;28;20839;-53
2022/05/21 02:20:50;;;;;;;12.63;3.37;;;13.10;75.40;;;13.26;53.34;95307.88;5045162;28;20797;-57
2022/05/21 02:23:18;;;;;;;3.63;2.30;;;13.10;75.40;;;13.21;53.98;95307.47;5046706;28;20960;-56
2022/05/21 02:25:45;;;;;;;2.50;2.03;;;13.00;76.20;;;13.21;53.92;95315.41;5045978;28;20493;-57
2022/05/21 02:28:13;;;;;;;11.87;3.47;;;13.00;77.00;;;13.21;53.98;95318.03;5045586;28;20483;-56
2022/05/21 02:30:42;;;;;;;2.83;2.20;;;13.00;77.10;;;13.20;54.07;95320.81;5040182;28;20567;-55
2022/05/21 02:33:10;;;;;;;6.90;2.80;;;13.00;77.40;;;13.19;54.37;95317.34;5039726;28;20946;-54
2022/05/21 02:35:37;;;;;;;4.53;2.30;;;13.00;77.60;;;13.16;54.26;95311.53;5038432;28;20480;-54
2022/05/21 02:40:49;;;;;;;6.33;2.63;;;12.90;78.20;;;13.10;55.25;95302.38;5045470;28;20475;-53
2022/05/21 02:43:16;;;;;;;4.10;2.87;;;12.90;79.30;;;13.07;54.71;95302.66;5043642;28;20469;-54
2022/05/21 02:45:45;;;;;;;3.47;2.53;;;12.80;78.60;;;13.06;55.00;95301.03;5045682;28;20571;-54
2022/05/21 02:48:12;;;;;;;5.23;2.37;;;12.80;79.20;;;13.04;55.08;95310.88;5049461;28;20536;-55
2022/05/21 02:50:39;;;;;;;9.90;2.50;;;12.80;79.20;;;13.01;55.05;95309.38;5047749;28;20841;-56
2022/05/21 02:53:08;;;;;;;3.00;2.63;;;12.80;78.90;;;13.02;55.01;95315.47;5044909;28;20980;-54
2022/05/21 02:55:36;;;;;;;9.17;3.80;;;12.80;79.20;;;13.01;55.54;95313.81;5044519;28;20529;-56
2022/05/21 02:58:03;;;;;;;8.20;2.70;;;12.80;79.90;;;13.00;55.17;95322.72;5036067;28;20515;-55
2022/05/21 03:00:32;;;;;;;7.73;3.23;;;12.80;79.50;;;12.96;55.10;95326.63;5035362;28;20488;-56
2022/05/21 03:03:01;;;;;;;3.20;3.00;;;12.70;79.30;;;12.94;54.88;95339.13;5047225;28;20500;-56
2022/05/21 03:05:29;;;;;;;7.93;3.63;;;12.80;79.50;;;12.91;55.09;95351.63;5044210;28;20797;-56
2022/05/21 03:07:56;;;;;;;10.90;3.77;;;12.70;79.40;;;12.90;55.39;95344.69;5044010;28;20456;-55
2022/05/21 03:10:25;;;;;;;7.03;3.23;;;12.70;79.40;;;12.86;55.01;95343.31;5046106;28;20479;-56
2022/05/21 03:12:53;;;;;;;2.50;2.30;;;12.70;78.80;;;12.85;54.54;95335.53;5046788;28;20462;-53
2022/05/21 03:15:22;;;;;;;4.60;3.03;;;12.60;78.40;;;12.80;54.71;95329.84;5048914;28;20475;-53
2022/05/21 03:17:49;;;;;;;5.50;3.23;;;12.60;79.10;;;12.74;54.30;95326.78;5044076;28;20455;-55
2022/05/21 03:20:19;;;;;;;13.50;3.37;;;12.50;78.20;;;12.68;54.62;95323.91;5045133;28;20499;-57
2022/05/21 03:22:47;;;;;;;7.70;3.40;;;12.50;78.20;;;12.63;54.54;95324.31;5043828;28;20542;-55
2022/05/21 03:25:14;;;;;;;9.23;4.23;;;12.50;78.30;;;12.61;54.97;95323.63;5050083;28;20471;-56
2022/05/21 03:27:43;;;;;;;6.30;3.40;;;12.40;78.80;;;12.60;54.63;95321.97;5047305;28;20459;-54
2022/05/21 03:30:18;;;;;;;3.63;2.80;;;12.40;78.80;;;12.61;55.32;95323.63;5048691;28;20491;-56
2022/05/21 03:32:45;;;;;;;4.60;3.67;;;12.40;79.50;;;12.63;54.93;95319.03;5047315;28;20505;-55
2022/05/21 03:35:13;;;;;;;3.63;3.33;;;12.40;79.50;;;12.64;54.77;95322.50;5050151;28;20862;-55
2022/05/21 03:37:42;;;;;;;3.97;3.30;;;12.40;79.40;;;12.66;55.26;95325.84;5045592;28;20887;-57
2022/05/21 03:40:12;;;;;;;4.50;3.00;;;12.50;80.00;;;12.67;55.51;95317.78;5047467;28;20472;-57
2022/05/21 03:42:40;;;;;;;6.23;3.27;;;12.40;80.70;;;12.70;55.60;95319.31;5041764;28;20998;-55
2022/05/21 03:45:09;;;;;;;8.13;3.00;;;12.50;80.90;;;12.75;55.53;95332.91;5049173;28;20476;-58
2022/05/21 03:47:36;;;;;;;8.77;3.20;;;12.50;80.90;;;12.81;55.53;95328.88;5046042;28;20451;-55
2022/05/21 03:50:04;;;;;;;12.10;3.43;;;12.60;81.00;;;12.86;55.56;95338.03;5048950;28;20528;-55
2022/05/21 03:52:31;;;;;;;22.97;4.23;;;12.60;80.90;;;12.90;55.35;95339.44;5043489;28;20966;-57
2022/05/21 03:55:00;;;;;;;6.80;3.53;;;12.70;81.30;;;12.95;55.49;95335.50;5040329;28;20472;-54
2022/05/21 03:57:27;;;;;;;11.80;4.20;;;12.70;81.00;;;12.97;55.44;95337.03;5045259;28;20471;-57
2022/05/21 03:59:57;;;;;;;7.07;3.20;;;12.70;80.60;;;13.01;55.48;95345.50;5044990;28;21030;-55
2022/05/21 04:02:24;;;;;;;8.40;4.17;;;12.80;80.60;;;13.05;55.41;95346.88;5044126;28;20495;-55
2022/05/21 04:04:51;;;;;;;13.53;3.80;;;12.80;80.30;;;13.09;55.03;95353.56;5047174;28;20483;-55
2022/05/21 04:07:18;;;;;;;11.97;3.70;;;12.90;80.30;;;13.14;55.08;95346.03;5049823;28;20457;-54
2022/05/21 04:09:46;;;;;;;11.93;5.23;;;12.90;80.20;;;13.15;55.04;95350.34;5044009;28;20557;-56
2022/05/21 04:12:14;;;;;;;10.60;4.87;;;12.90;80.00;;;13.16;54.56;95344.06;5042610;28;20451;-57
2022/05/21 04:14:41;;;;;;;6.40;3.70;;;13.00;79.70;;;13.14;54.59;95351.31;5043232;28;20491;-56
2022/05/21 04:17:13;;;;;;;6.43;3.43;;;12.90;79.10;;;13.12;54.41;95353.28;5049071;28;20506;-54
2022/05/21 04:19:41;;;;;;;9.53;3.20;;;12.90;78.70;;;13.09;54.42;95361.47;5055164;28;20871;-55
2022/05/21 04:22:08;;;;;;;11.47;4.87;;;12.90;78.70;;;13.04;54.57;95353.97;5046551;28;20490;-55
2022/05/21 04:24:35;;;;;;;18.00;5.00;;;12.90;78.70;;;13.02;55.08;95358.56;5056481;28;20479;-56
2022/05/21 04:27:03;;;;;;;11.07;4.80;;;12.90;79.70;;;13.05;54.89;95357.44;5055377;28;20459;-54
2022/05/21 04:29:32;;;;;;;12.63;5.17;;;12.90;79.50;;;13.08;54.96;95357.16;5050991;28;20825;-54
2022/05/21 04:31:59;;;;;;;17.83;5.23;;;12.90;79.90;;;13.14;55.00;95367.16;5051898;28;20458;-54
2022/05/21 04:34:26;;;;;;;12.60;5.33;;;12.90;80.10;;;13.23;54.95;95349.59;5049680;28;21019;-53
2022/05/21 04:36:53;;;;;;;7.70;4.60;;;13.00;80.90;;;13.35;55.41;95348.47;5052557;28;20458;-55
2022/05/21 04:39:21;;;;;;;9.70;3.80;;;13.10;81.30;;;13.43;54.84;95356.53;5050137;28;20606;-56
2022/05/21 04:41:48;;;;;;;7.27;2.77;;;13.20;80.40;;;13.49;54.57;95349.81;5054423;28;20506;-56
2022/05/21 04:44:15;;;;;;;12.90;4.90;;;13.20;79.70;;;13.53;54.44;95351.19;5054226;28;20484;-56
2022/05/21 04:46:44;;;;;;;7.97;3.77;;;13.30;79.20;;;13.62;54.40;95352.13;5053865;28;20541;-56
2022/05/21 04:49:11;;;;;;;8.93;2.97;;;13.40;79.80;;;13.72;54.69;95360.81;5042202;28;20558;-56
2022/05/21 04:51:39;;;;;;;3.87;2.93;;;13.40;79.60;;;13.80;54.28;95355.66;5052632;28;20451;-58
2022/05/21 04:54:07;;;;;;;3.10;2.33;;;13.50;79.30;;;13.86;53.90;95350.75;5056970;28;20455;-55
2022/05/21 04:56:34;;;;;;;3.97;2.80;;;13.60;78.10;;;13.87;53.66;95350.59;5056285;28;20456;-56
2022/05/21 04:59:01;;;;;;;4.33;3.77;;;13.60;78.00;;;13.91;53.81;95359.91;5057386;28;20452;-55
2022/05/21 05:01:30;;;;;;;6.67;3.30;;;13.60;78.10;;;13.98;53.91;95357.50;5056016;28;20459;-58
2022/05/21 05:03:59;;;;;;;5.93;3.00;;;13.70;78.20;;;14.05;53.85;95360.38;5056791;28;20462;-56
2022/05/21 05:06:26;;;;;;;2.87;2.63;;;13.80;78.40;;;14.13;53.72;95355.19;5045571;28;21029;-55
2022/05/21 05:08:53;;;;;;;6.40;3.00;;;13.90;78.40;;;14.21;53.93;95365.00;5057445;28;20923;-55
2022/05/21 05:11:21;;;;;;;4.70;3.10;;;13.90;78.30;;;14.29;53.40;95365.91;5052976;28;20513;-56
2022/05/21 05:13:48;;;;;;;3.67;3.00;;;14.00;77.70;;;14.39;53.18;95362.34;5052123;28;20835;-56
2022/05/21 05:16:15;;;;;;;9.43;2.77;;;14.10;77.50;;;14.49;52.85;95360.47;5053521;28;20971;-56
2022/05/21 05:18:42;;;;;;;5.33;2.90;;;14.20;76.80;;;14.64;52.44;95355.47;5055502;28;20455;-55
2022/05/21 05:21:11;;;;;;;6.90;2.60;;;14.30;76.40;;;14.80;52.15;95365.41;5055636;28;20478;-55
2022/05/21 05:23:38;;;;;;;6.67;3.07;;;14.50;76.20;;;15.01;52.41;95362.38;5047866;28;20851;-55
2022/05/21 05:26:05;;;;;;;4.47;3.13;;;14.60;76.00;;;15.26;52.08;95366.06;5052193;28;20495;-54
2022/05/21 05:28:33;;;;;;;6.30;3.10;;;14.90;75.70;;;15.51;51.39;95363.53;5054619;28;20467;-56
2022/05/21 05:31:00;;;;;;;4.63;4.00;;;15.10;75.00;;;15.72;51.04;95353.38;5053857;28;20932;-55
2022/05/21 05:33:29;;;;;;;11.27;3.37;;;15.30;74.30;;;15.99;51.14;95355.94;5035078;28;21106;-59
2022/05/21 05:35:57;;;;;;;4.30;2.93;;;15.50;74.60;;;16.29;50.63;95350.06;5040952;28;20560;-56
2022/05/21 05:38:25;;;;;;;18.93;2.87;;;15.80;74.10;;;16.62;50.26;95349.25;5045722;28;20579;-58
2022/05/21 05:40:55;;;;;;;7.40;3.27;;;16.10;73.40;;;16.95;50.01;95354.63;5044755;28;20502;-56
2022/05/21 05:43:22;;;;;;;12.50;3.13;;;16.40;72.20;;;17.24;49.34;95343.41;5046862;28;20970;-56
2022/05/21 05:45:49;;;;;;;16.47;4.30;;;16.70;71.50;;;17.58;48.71;95342.34;5044454;28;20478;-56
2022/05/21 05:48:17;;;;;;;5.00;3.43;;;17.00;70.20;;;17.86;48.32;95340.09;5041464;28;20462;-56
2022/05/21 05:50:44;;;;;;;10.90;3.77;;;17.30;69.60;;;18.16;47.78;95334.16;5045307;28;20474;-58
2022/05/21 05:53:11;;;;;;;7.20;4.53;;;17.60;68.40;;;18.45;47.08;95323.63;5051476;28;20828;-56
2022/05/21 05:55:42;;;;;;;5.93;3.07;;;17.90;67.70;;;18.71;46.31;95327.75;5043397;28;20564;-55
2022/05/21 06:00:50;;;;;;;11.10;2.97;;;18.40;65.60;;;19.24;45.52;95330.50;5046200;28;20492;-57
2022/05/21 06:03:17;;;;;;;11.90;3.40;;;18.70;64.40;;;19.49;45.67;95322.22;5048558;28;20589;-55
2022/05/21 06:05:45;;;;;;;7.60;2.90;;;18.90;63.30;;;19.74;44.82;95324.59;5050770;28;20475;-58
2022/05/21 06:08:12;;;;;;;10.10;2.93;;;19.10;61.90;;;19.94;44.60;95324.88;5049827;28;20500;-57
2022/05/21 06:10:43;;;;;;;12.83;4.03;;;19.30;60.70;;;20.14;43.40;95312.59;5050103;28;20843;-56
2022/05/21 06:13:10;;;;;;;5.10;3.30;;;19.60;59.30;;;20.32;43.64;95309.47;5047211;28;20458;-56
2022/05/21 06:15:38;;;;;;;8.90;3.77;;;19.80;58.80;;;20.49;43.18;95304.72;5053771;28;21007;-57
2022/05/21 06:18:09;;;;;;;6.30;3.17;;;19.90;58.60;;;20.71;43.10;95302.91;5050908;28;20708;-56
2022/05/21 06:20:36;;;;;;;8.23;3.30;;;20.10;58.40;;;20.94;42.98;95299.19;5044473;28;20486;-58
2022/05/21 06:23:04;;;;;;;9.00;3.70;;;20.30;58.70;;;21.19;42.18;95301.41;5038520;28;21007;-58
2022/05/21 06:25:33;;;;;;;6.67;3.83;;;20.60;57.30;;;21.39;41.84;95293.53;5039623;28;21426;-56
2022/05/21 06:28:02;;;;;;;20.80;4.60;;;20.80;56.40;;;21.61;41.68;95291.59;5048495;28;20533;-58
2022/05/21 06:30:31;;;;;;;41.30;5.20;;;21.00;56.10;;;21.77;41.40;95285.13;5049610;28;20484;-56
2022/05/21 06:32:59;;;;;;;4.73;3.50;;;21.10;55.50;;;21.96;40.26;95284.34;5046109;28;20988;-55
2022/05/21 06:35:27;;;;;;;5.67;2.80;;;21.30;53.80;;;22.11;40.25;95278.84;5046443;28;20472;-56
2022/05/21 06:37:55;;;;;;;5.20;3.30;;;21.50;54.00;;;22.31;40.15;95280.78;5040407;28;20455;-57
2022/05/21 06:40:22;;;;;;;14.83;3.33;;;21.70;53.90;;;22.55;39.79;95280.19;5048903;28;21083;-58
2022/05/21 06:42:49;;;;;;;8.77;3.30;;;21.90;53.40;;;22.78;38.97;95276.28;5044591;28;20498;-55
2022/05/21 06:45:18;;;;;;;7.20;3.00;;;22.10;52.40;;;22.99;38.79;95274.44;5049923;28;20480;-56
2022/05/21 06:47:45;;;;;;;3.70;2.70;;;22.30;51.50;;;23.19;38.74;95272.59;5053271;28;20455;-58
2022/05/21 06:50:13;;;;;;;4.93;2.07;;;22.50;51.20;;;23.40;38.35;95265.34;5051208;28;20476;-56
2022/05/21 06:52:40;;;;;;;6.13;2.23;;;22.70;50.80;;;23.62;37.54;95266.72;5042280;28;20464;-55
2022/05/21 06:55:09;;;;;;;6.73;2.77;;;22.90;50.10;;;23.84;37.63;95253.00;5032311;28;20479;-57
2022/05/21 06:57:36;;;;;;;5.90;3.20;;;23.10;49.50;;;24.06;37.29;95252.69;5041740;28;20470;-58
2022/05/21 07:00:05;;;;;;;34.33;4.50;;;23.40;49.00;;;24.20;37.15;95254.31;5045903;28;20525;-56
2022/05/21 07:02:34;;;;;;;4.07;2.30;;;23.60;48.90;;;24.31;36.72;95242.03;5038998;28;20499;-54
2022/05/21 07:07:46;;;;;;;16.73;3.50;;;23.70;48.00;;;24.47;35.80;95238.00;5038667;28;20466;-55
2022/05/21 07:10:19;;;;;;;18.70;3.20;;;23.80;48.00;;;24.49;35.57;95238.59;5046169;28;20853;-55
2022/05/21 07:12:46;;;;;;;7.63;2.63;;;23.80;47.30;;;24.52;35.88;95230.94;5037738;28;20459;-56
2022/05/21 07:15:13;;;;;;;6.03;2.50;;;23.90;47.70;;;24.55;36.04;95226.97;5043995;28;20486;-57
2022/05/21 07:17:42;;;;;;;7.97;2.90;;;23.90;46.90;;;24.60;35.69;95227.19;5040652;28;20534;-58
2022/05/21 07:20:14;;;;;;;9.70;3.03;;;24.00;46.90;;;24.76;35.68;95217.72;5049606;28;20482;-57
2022/05/21 07:22:42;;;;;;;14.13;3.23;;;24.00;46.90;;;25.00;35.32;95226.84;5050689;28;20478;-57
2022/05/21 07:25:11;;;;;;;6.93;3.00;;;24.30;46.90;;;25.22;34.83;95219.16;5050024;28;20570;-58
2022/05/21 07:27:38;;;;;;;6.23;3.03;;;24.50;46.70;;;25.36;34.99;95225.28;5049293;28;20906;-57
2022/05/21 07:30:06;;;;;;;5.80;3.43;;;24.70;46.30;;;25.49;35.12;95223.47;5060427;28;20471;-55
2022/05/21 07:32:34;;;;;;;8.37;3.23;;;24.80;46.30;;;25.66;34.83;95221.00;5053484;28;20535;-56
2022/05/21 07:35:05;;;;;;;21.83;3.47;;;25.00;45.80;;;25.87;33.97;95217.00;5055808;28;20543;-56
2022/05/21 07:37:32;;;;;;;13.77;3.50;;;25.20;45.60;;;26.11;34.12;95207.97;5056313;28;20605;-57
2022/05/21 07:40:00;;;;;;;3.90;2.87;;;25.40;45.40;;;26.39;34.29;95211.13;5059117;28;20474;-57
2022/05/21 07:42:27;;;;;;;3.20;2.67;;;25.60;45.30;;;26.62;33.82;95207.66;5056534;28;20983;-56
2022/05/21 07:44:54;;;;;;;6.53;2.93;;;25.90;45.10;;;26.88;33.66;95211.84;5053843;28;20926;-57
2022/05/21 07:47:24;;;;;;;9.80;2.90;;;26.10;44.80;;;27.17;33.31;95206.53;5054327;28;20954;-57
2022/05/21 07:49:52;;;;;;;11.80;2.70;;;26.40;44.50;;;27.45;33.11;95210.41;5049294;28;20473;-57
2022/05/21 07:52:21;;;;;;;8.63;2.63;;;26.70;44.10;;;27.73;32.58;95207.78;5048020;28;20906;-56
2022/05/21 07:54:48;;;;;;;6.23;3.27;;;27.00;43.60;;;27.97;32.56;95198.78;5060553;28;20474;-56
2022/05/21 07:57:15;;;;;;;7.20;3.43;;;27.30;43.30;;;28.17;32.32;95196.47;5060377;28;20449;-56
2022/05/21 07:59:42;;;;;;;4.80;2.83;;;27.40;43.40;;;28.40;31.86;95194.72;5057635;28;20493;-56
2022/05/21 08:02:13;;;;;;;10.63;3.07;;;27.60;42.60;;;28.61;31.68;95191.31;5064445;28;20902;-56
2022/05/21 08:04:40;;;;;;;14.17;2.83;;;27.90;42.20;;;28.84;31.60;95181.38;5050863;28;20470;-55
2022/05/21 08:07:07;;;;;;;8.97;3.10;;;28.10;41.80;;;29.07;31.11;95177.66;5051342;28;20475;-56
2022/05/21 08:09:36;;;;;;;8.40;2.83;;;28.30;41.20;;;29.30;31.14;95170.44;5061071;28;20527;-56
2022/05/21 08:12:04;;;;;;;12.90;3.10;;;28.50;41.10;;;29.43;30.36;95169.22;5061279;28;20919;-56
2022/05/21 08:14:32;;;;;;;10.70;3.67;;;28.70;40.50;;;29.53;31.08;95165.81;5052705;28;20476;-57
2022/05/21 08:16:59;;;;;;;11.80;3.87;;;28.80;40.60;;;29.64;30.29;95160.28;5059421;28;20450;-56
2022/05/21 08:19:26;;;;;;;8.80;3.53;;;28.90;40.50;;;29.75;29.85;95155.78;5059132;28;20487;-55
2022/05/21 08:26:56;;;;;;;9.30;4.40;;;29.00;39.90;;;29.90;30.10;95160.63;5048574;28;20467;-57
2022/05/21 08:27:27;;;;;;;25.27;5.47;;;29.40;39.70;;;30.35;29.96;95164.84;5048477;28;20481;-55
2022/05/21 08:29:55;;;;;;;7.20;3.73;;;29.60;39.80;;;30.61;29.91;95156.13;5044224;28;20537;-56
2022/05/21 08:32:23;;;;;;;4.37;3.43;;;29.80;39.60;;;30.85;29.27;95156.59;5047456;28;20558;-55
2022/05/21 08:34:52;;;;;;;8.23;3.30;;;30.10;40.10;;;31.06;29.40;95158.41;5048163;28;20547;-55
2022/05/21 08:37:20;;;;;;;13.03;3.30;;;30.30;38.70;;;31.23;28.72;95151.97;5048429;28;20467;-56
2022/05/21 08:39:49;;;;;;;7.83;3.03;;;30.50;38.30;;;31.40;28.53;95151.78;5048685;28;20494;-54
2022/05/21 08:42:33;;;;;;;13.70;3.27;;;30.70;37.80;;;31.44;28.59;95156.41;5045365;28;20201;-55
2022/05/21 08:45:18;;;;;;;4.60;2.90;;;30.80;37.80;;;31.57;28.29;95151.63;5047874;28;20257;-57
2022/05/21 08:47:45;;;;;;;8.60;3.13;;;30.80;37.90;;;31.75;29.11;95151.13;5036310;28;20233;-57
2022/05/21 08:50:14;;;;;;;8.50;3.13;;;31.00;37.70;;;31.95;28.33;95152.31;5050778;28;20223;-57
2022/05/21 08:52:44;;;;;;;3.53;2.50;;;31.20;37.40;;;32.12;27.52;95146.66;5049055;28;20204;-56
2022/05/21 08:55:17;;;;;;;7.63;2.67;;;31.30;36.50;;;32.26;27.79;95136.88;5046774;28;20258;-56
2022/05/21 08:57:46;;;;;;;19.13;3.87;;;31.60;36.60;;;32.47;27.95;95145.88;5045321;28;20199;-57
2022/05/21 09:00:18;;;;;;;5.77;2.57;;;31.80;36.60;;;32.63;27.19;95140.44;5049057;28;20709;-55
2022/05/21 09:02:45;;;;;;;5.97;3.03;;;31.90;36.20;;;32.73;27.65;95140.44;5032219;28;20232;-56
2022/05/21 09:05:15;;;;;;;26.10;4.00;;;32.00;36.10;;;32.81;27.41;95126.28;5040989;28;20228;-57
2022/05/21 09:07:52;;;;;;;6.63;2.63;;;32.10;35.90;;;32.94;26.77;95133.06;5037788;28;20223;-56
2022/05/21 09:10:34;;;;;;;7.00;2.40;;;32.20;34.80;;;33.08;26.38;95140.66;5046890;28;20708;-57
2022/05/21 09:13:08;;;;;;;7.50;2.20;;;32.30;34.90;;;33.22;26.19;95137.13;5046912;28;20220;-55
2022/05/21 09:18:19;;;;;;;3.90;2.10;;;32.60;31.40;;;33.36;25.81;95131.09;5008609;28;20265;-54
2022/05/21 09:20:51;;;;;;;5.20;2.30;;;32.70;33.70;;;33.47;25.75;95129.97;5048969;28;20220;-56
2022/05/21 09:23:19;;;;;;;3.00;2.08;;;32.80;33.20;;;33.48;25.56;95131.59;5046368;28;20200;-55
2022/05/21 09:25:50;;;;;;;6.88;2.03;;;32.80;33.30;;;33.58;25.61;95128.81;5049717;28;20654;-56
2022/05/21 09:28:22;;;;;;;2.20;1.70;;;32.90;33.30;;;33.74;25.04;95136.97;5050054;28;20204;-55
2022/05/21 09:30:57;;;;;;;2.78;1.73;;;33.00;32.00;;;33.87;24.25;95130.09;5050406;28;20221;-56
2022/05/21 09:33:26;;;;;;;6.15;2.00;;;33.10;32.30;;;33.94;24.71;95133.31;5046667;28;20315;-56
2022/05/21 09:35:56;;;;;;;4.68;2.30;;;33.20;32.00;;;34.04;24.40;95124.25;5050525;28;20693;-56
2022/05/21 09:38:27;;;;;;;7.57;2.03;;;33.30;31.70;;;34.17;24.83;95125.53;5050305;28;20799;-57
2022/05/21 09:41:12;;;;;;;6.03;2.20;;;33.40;32.00;;;34.32;24.42;95121.91;5048733;28;20221;-57
2022/05/21 09:46:27;;;;;;;7.50;2.45;;;33.70;31.30;;;34.38;22.92;95112.56;5048751;28;20196;-56
2022/05/21 09:49:12;;;;;;;4.18;2.25;;;33.70;29.90;;;34.27;23.89;95117.28;5050358;28;20248;-56
2022/05/21 09:51:40;;;;;;;8.73;2.35;;;33.60;31.20;;;34.22;24.88;95104.50;5049877;28;20200;-58
2022/05/21 09:54:20;;;;;;;28.25;3.72;;;33.50;31.60;;;34.16;24.25;95102.88;5050956;28;20256;-56
2022/05/21 09:56:52;;;;;;;1.85;1.75;;;33.50;31.30;;;34.12;23.60;95088.16;5050121;28;20205;-56
2022/05/21 09:59:20;;;;;;;3.03;1.80;;;33.50;31.10;;;34.17;24.36;95092.78;5050965;28;20551;-57
2022/05/21 10:01:49;;;;;;;11.32;2.70;;;33.50;31.60;;;34.20;24.90;95092.22;5049810;28;20315;-56
2022/05/21 10:04:23;;;;;;;2.83;2.05;;;33.50;31.60;;;34.19;24.02;95077.75;5050769;28;20228;-56
2022/05/21 10:06:54;;;;;;;4.47;2.05;;;33.50;31.20;;;34.15;23.45;95075.88;5051387;28;20655;-57
2022/05/21 10:12:13;;;;;;;7.63;1.80;;;33.40;31.60;;;33.99;25.00;95072.41;5050289;28;20322;-55
2022/05/21 10:14:44;;;;;;;1.80;1.58;;;33.30;32.00;;;34.00;24.70;95074.06;5046173;28;20240;-57
2022/05/21 10:17:15;;;;;;;5.35;2.00;;;33.30;31.50;;;33.94;24.40;95059.63;5044847;28;20197;-57
2022/05/21 10:19:46;;;;;;;1.75;1.42;;;33.30;31.50;;;33.88;24.33;95056.13;5051429;28;20220;-54
2022/05/21 10:22:29;;;;;;;3.42;1.73;;;33.20;31.30;;;33.86;24.51;95052.03;5050451;28;20207;-56
2022/05/21 10:25:05;;;;;;;10.68;2.50;;;33.10;31.80;;;33.79;25.23;95060.56;5048878;28;20304;-56
2022/05/21 10:28:01;;;;;;;10.38;2.55;;;33.10;33.00;;;33.76;24.81;95048.28;5046878;28;20196;-57
2022/05/21 10:30:32;;;;;;;7.65;2.33;;;33.10;32.00;;;33.71;25.08;95044.72;5044690;28;20225;-55
2022/05/21 10:33:12;;;;;;;5.22;2.00;;;33.00;32.00;;;33.58;25.04;95040.72;5049996;28;20707;-56
2022/05/21 10:35:57;;;;;;;9.20;2.15;;;32.90;32.20;;;33.55;24.70;95042.09;5047352;28;20232;-56
2022/05/21 10:39:29;;;;;;;2.25;1.40;;;32.80;31.90;;;33.56;25.03;95032.81;5050291;28;20736;-57
2022/05/21 10:42:11;;;;;;;4.55;1.80;;;32.80;32.10;;;33.56;24.83;95037.47;4963906;28;20290;-55
2022/05/21 10:44:49;;;;;;;3.17;2.35;;;32.80;32.40;;;33.59;25.40;95029.53;5039000;28;20220;-56
2022/05/21 10:47:39;;;;;;;2.53;2.00;;;32.80;32.70;;;33.52;24.08;95026.28;5049362;28;20266;-56
2022/05/21 10:50:23;;;;;;;9.52;1.92;;;32.80;32.00;;;33.14;24.07;95020.47;5049909;28;20398;-56
2022/05/21 10:53:03;;;;;;;4.03;1.77;;;32.60;31.00;;;32.98;24.26;95011.50;5048176;28;20662;-58